createdAt,value
2022-10-09T00:02:29.097Z,101743.75
2022-10-09T00:04:58.953Z,101747.41
2022-10-09T00:07:28.737Z,101749.41
2022-10-09T00:09:58.452Z,101740.72
2022-10-09T00:12:31.091Z,101759.72
2022-10-09T00:15:01.119Z,101760.41
2022-10-09T00:17:30.912Z,101760.56
2022-10-09T00:20:00.649Z,101771.41
2022-10-09T00:22:31.002Z,101773.41
2022-10-09T00:25:00.833Z,101773.41
2022-10-09T00:27:33.144Z,101776.22
2022-10-09T00:30:03.382Z,101778.06
2022-10-09T00:32:33.431Z,101784.41
2022-10-09T00:35:03.274Z,101785.22
2022-10-09T00:37:33.057Z,101785.41
2022-10-09T00:40:03.502Z,101789.91
2022-10-09T00:42:35.967Z,101785.72
2022-10-09T00:45:06.704Z,101785.88
2022-10-09T00:47:44.349Z,101787.03
2022-10-09T00:50:20.280Z,101791.53
2022-10-09T00:52:53.371Z,101790.69
2022-10-09T00:55:25.592Z,101795.34
2022-10-09T00:58:05.236Z,101792.84
2022-10-09T01:00:35.374Z,101802.00
2022-10-09T01:03:05.181Z,101804.00
2022-10-09T01:05:46.336Z,101801.47
2022-10-09T01:08:22.969Z,101809.50
2022-10-09T01:11:02.253Z,101814.97
2022-10-09T01:13:39.149Z,101814.28
2022-10-09T01:16:21.556Z,101809.09
2022-10-09T01:19:01.012Z,101820.06
2022-10-09T01:21:37.829Z,101809.88
2022-10-09T01:24:19.608Z,101814.53
2022-10-09T01:27:07.884Z,101816.84
2022-10-09T01:29:43.633Z,101826.16
2022-10-09T01:32:15.892Z,101823.78
2022-10-09T01:34:47.738Z,101822.44
2022-10-09T01:37:19.457Z,101828.06
2022-10-09T01:39:50.323Z,101822.06
2022-10-09T01:42:25.274Z,101825.16
2022-10-09T01:44:55.075Z,101831.38
2022-10-09T01:47:25.795Z,101830.50
2022-10-09T01:50:00.947Z,101839.75
2022-10-09T01:52:41.940Z,101838.41
2022-10-09T01:55:25.316Z,101836.03
2022-10-09T01:58:06.289Z,101846.84
2022-10-09T02:00:40.248Z,101846.84
2022-10-09T02:03:14.687Z,101851.50
2022-10-09T02:05:47.414Z,101846.31
2022-10-09T02:08:21.043Z,101850.97
2022-10-09T02:10:55.359Z,101849.44
2022-10-09T02:13:28.039Z,101853.09
2022-10-09T02:16:03.441Z,101849.44
2022-10-09T02:18:40.774Z,101855.78
2022-10-09T02:21:16.118Z,101850.44
2022-10-09T02:23:51.714Z,101851.44
2022-10-09T02:26:22.363Z,101855.25
2022-10-09T02:28:55.064Z,101857.22
2022-10-09T02:31:28.790Z,101862.69
2022-10-09T02:33:59.369Z,101855.69
2022-10-09T02:36:30.509Z,101868.34
2022-10-09T02:39:00.943Z,101864.16
2022-10-09T02:41:31.404Z,101872.16
2022-10-09T02:44:04.292Z,101864.41
2022-10-09T02:46:34.702Z,101859.94
2022-10-09T02:49:04.587Z,101867.81
2022-10-09T02:51:34.814Z,101864.16
2022-10-09T02:54:05.107Z,101864.16
2022-10-09T02:56:38.807Z,101857.00
2022-10-09T02:59:12.169Z,101867.81
2022-10-09T03:01:42.056Z,101865.13
2022-10-09T03:04:12.966Z,101861.50
2022-10-09T03:06:42.737Z,101870.31
2022-10-09T03:09:12.503Z,101869.63
2022-10-09T03:11:42.278Z,101877.63
2022-10-09T03:14:14.771Z,101875.91
2022-10-09T03:16:44.578Z,101874.97
2022-10-09T03:19:14.404Z,101877.75
2022-10-09T03:21:44.212Z,101881.41
2022-10-09T03:24:14.344Z,101879.72
2022-10-09T03:26:44.079Z,101879.72
2022-10-09T03:29:16.499Z,101892.22
2022-10-09T03:31:52.401Z,101888.56
2022-10-09T03:34:22.884Z,101887.88
2022-10-09T03:36:53.029Z,101884.53
2022-10-09T03:39:22.859Z,101890.84
2022-10-09T03:41:52.726Z,101894.50
2022-10-09T03:44:25.128Z,101892.13
2022-10-09T03:46:55.405Z,101892.13
2022-10-09T03:49:25.253Z,101894.09
2022-10-09T03:51:55.049Z,101903.09
2022-10-09T03:54:24.866Z,101895.38
2022-10-09T03:56:54.611Z,101894.56
2022-10-09T03:59:27.259Z,101892.19
2022-10-09T04:01:57.068Z,101900.34
2022-10-09T04:04:26.879Z,101899.63
2022-10-09T04:06:56.669Z,101904.97
2022-10-09T04:09:26.485Z,101900.47
2022-10-09T04:11:56.358Z,101909.59
2022-10-09T04:14:28.695Z,101910.91
2022-10-09T04:16:58.511Z,101917.06
2022-10-09T04:19:28.283Z,101918.19
2022-10-09T04:21:58.043Z,101921.00
2022-10-09T04:24:27.798Z,101919.47
2022-10-09T04:26:57.601Z,101923.25
2022-10-09T04:29:30.030Z,101920.72
2022-10-09T04:31:59.893Z,101927.03
2022-10-09T04:34:29.686Z,101930.84
2022-10-09T04:36:59.582Z,101925.66
2022-10-09T04:39:29.588Z,101927.47
2022-10-09T04:41:59.491Z,101921.47
2022-10-09T04:44:31.892Z,101926.25
2022-10-09T04:47:01.750Z,101928.22
2022-10-09T04:49:31.535Z,101924.03
2022-10-09T04:52:01.345Z,101926.84
2022-10-09T04:54:31.138Z,101927.97
2022-10-09T04:57:00.947Z,101933.44
2022-10-09T04:59:33.587Z,101930.91
2022-10-09T05:02:03.831Z,101937.91
2022-10-09T05:04:33.720Z,101938.91
2022-10-09T05:07:03.536Z,101937.38
2022-10-09T05:09:33.341Z,101937.38
2022-10-09T05:12:03.111Z,101945.66
2022-10-09T05:14:35.443Z,101953.94
2022-10-09T05:17:14.587Z,101955.16
2022-10-09T05:19:44.787Z,101948.56
2022-10-09T05:22:14.657Z,101954.19
2022-10-09T05:24:44.393Z,101969.31
2022-10-09T05:27:14.212Z,101962.44
2022-10-09T05:29:46.700Z,101969.88
2022-10-09T05:32:16.978Z,101967.94
2022-10-09T05:34:46.869Z,101972.00
2022-10-09T05:37:16.595Z,101971.59
2022-10-09T05:39:46.378Z,101972.44
2022-10-09T05:42:16.341Z,101969.63
2022-10-09T05:44:48.702Z,101977.75
2022-10-09T05:47:19.817Z,101981.09
2022-10-09T05:49:49.584Z,101987.97
2022-10-09T05:52:19.433Z,101993.97
2022-10-09T05:54:49.236Z,101988.78
2022-10-09T05:57:19.032Z,101986.41
2022-10-09T05:59:51.369Z,101991.16
2022-10-09T06:02:21.148Z,101999.38
2022-10-09T06:04:51.030Z,102000.06
2022-10-09T06:07:20.785Z,102000.59
2022-10-09T06:09:50.580Z,102000.25
2022-10-09T06:12:20.359Z,101999.94
2022-10-09T06:14:52.777Z,102011.38
2022-10-09T06:17:22.639Z,102007.50
2022-10-09T06:19:52.426Z,102008.03
2022-10-09T06:22:22.203Z,102014.38
2022-10-09T06:24:52.048Z,102020.47
2022-10-09T06:27:21.778Z,102017.91
2022-10-09T06:29:56.059Z,102013.94
2022-10-09T06:32:25.916Z,102024.84
2022-10-09T06:34:57.419Z,102029.13
2022-10-09T06:37:27.180Z,102033.41
2022-10-09T06:39:57.408Z,102035.31
2022-10-09T06:42:27.201Z,102039.41
2022-10-09T06:45:03.046Z,102037.50
2022-10-09T06:47:33.113Z,102036.94
2022-10-09T06:50:03.000Z,102045.72
2022-10-09T06:52:32.713Z,102049.75
2022-10-09T06:55:02.419Z,102054.03
2022-10-09T06:57:32.227Z,102054.28
2022-10-09T07:00:05.132Z,102046.69
2022-10-09T07:02:36.583Z,102061.78
2022-10-09T07:05:10.091Z,102056.81
2022-10-09T07:07:43.199Z,102058.84
2022-10-09T07:10:13.508Z,102057.19
2022-10-09T07:12:43.244Z,102065.09
2022-10-09T07:15:18.744Z,102061.16
2022-10-09T07:17:51.855Z,102075.41
2022-10-09T07:20:21.645Z,102075.13
2022-10-09T07:22:51.620Z,102080.69
2022-10-09T07:25:21.566Z,102076.38
2022-10-09T07:27:51.329Z,102071.84
2022-10-09T07:30:23.748Z,102076.88
2022-10-09T07:32:54.730Z,102073.25
2022-10-09T07:35:24.596Z,102071.75
2022-10-09T07:37:54.608Z,102083.78
2022-10-09T07:40:26.086Z,102072.13
2022-10-09T07:42:56.131Z,102081.63
2022-10-09T07:45:28.925Z,102082.31
2022-10-09T07:47:59.041Z,102074.94
2022-10-09T07:50:28.856Z,102079.44
2022-10-09T07:52:58.571Z,102079.59
2022-10-09T07:55:28.583Z,102084.94
2022-10-09T07:57:58.431Z,102083.56
2022-10-09T08:00:30.906Z,102089.28
2022-10-09T08:03:00.716Z,102092.41
2022-10-09T08:05:30.618Z,102089.56
2022-10-09T08:08:02.428Z,102091.22
2022-10-09T08:10:32.940Z,102099.63
2022-10-09T08:13:02.813Z,102098.91
2022-10-09T08:15:35.248Z,102095.56
2022-10-09T08:18:05.035Z,102100.72
2022-10-09T08:20:34.805Z,102090.28
2022-10-09T08:23:04.654Z,102100.09
2022-10-09T08:25:37.263Z,102101.50
2022-10-09T08:28:07.846Z,102095.91
2022-10-09T08:30:40.227Z,102106.88
2022-10-09T08:33:10.026Z,102114.69
2022-10-09T08:35:39.898Z,102109.34
2022-10-09T08:38:17.809Z,102117.84
2022-10-09T08:41:07.633Z,102114.91
2022-10-09T08:43:41.444Z,102113.16
2022-10-09T08:46:23.268Z,102121.41
2022-10-09T08:48:54.777Z,102117.78
2022-10-09T08:51:29.451Z,102122.50
2022-10-09T08:54:04.542Z,102114.72
2022-10-09T08:56:36.893Z,102114.69
2022-10-09T08:59:06.859Z,102120.53
2022-10-09T09:01:48.199Z,102114.16
2022-10-09T09:04:37.919Z,102117.91
2022-10-09T09:07:16.658Z,102112.25
2022-10-09T09:09:55.263Z,102115.59
2022-10-09T09:12:36.635Z,102119.88
2022-10-09T09:15:27.314Z,102114.63
2022-10-09T09:18:09.519Z,102108.31
2022-10-09T09:20:51.701Z,102113.56
2022-10-09T09:23:27.588Z,102111.75
2022-10-09T09:25:59.717Z,102111.88
2022-10-09T09:28:33.162Z,102112.97
2022-10-09T09:31:09.417Z,102111.34
2022-10-09T09:33:46.793Z,102108.41
2022-10-09T09:36:23.758Z,102110.22
2022-10-09T09:39:44.255Z,102097.97
2022-10-09T09:41:46.322Z,102110.41
2022-10-09T09:44:17.706Z,102108.19
2022-10-09T09:46:50.558Z,102106.41
2022-10-09T09:49:27.865Z,102103.91
2022-10-09T09:51:59.786Z,102100.25
2022-10-09T09:54:36.062Z,102097.69
2022-10-09T09:57:19.495Z,102102.25
2022-10-09T09:59:50.981Z,102096.72
2022-10-09T10:02:22.984Z,102104.22
2022-10-09T10:05:00.285Z,102095.25
2022-10-09T10:07:31.553Z,102090.16
2022-10-09T10:10:09.112Z,102089.66
2022-10-09T10:12:44.234Z,102086.63
2022-10-09T10:15:22.899Z,102092.88
2022-10-09T10:18:00.305Z,102085.50
2022-10-09T10:20:35.298Z,102088.84
2022-10-09T10:23:05.101Z,102082.06
2022-10-09T10:25:36.754Z,102074.53
2022-10-09T10:28:15.932Z,102070.97
2022-10-09T10:30:47.035Z,102077.06
2022-10-09T10:33:21.891Z,102078.69
2022-10-09T10:35:57.966Z,102082.44
2022-10-09T10:38:32.788Z,102077.63
2022-10-09T10:41:14.085Z,102084.84
2022-10-09T10:43:46.936Z,102067.66
2022-10-09T10:46:25.266Z,102088.38
2022-10-09T10:48:55.468Z,102081.72
2022-10-09T10:51:59.487Z,102072.69
2022-10-09T10:54:39.213Z,102069.97
2022-10-09T10:57:15.579Z,102062.97
2022-10-09T10:59:56.624Z,102065.13
2022-10-09T11:03:02.844Z,102058.41
2022-10-09T11:05:46.003Z,102059.47
2022-10-09T11:08:31.434Z,102052.41
2022-10-09T11:11:08.506Z,102055.34
2022-10-09T11:13:52.622Z,102050.63
2022-10-09T11:16:38.204Z,102050.50
2022-10-09T11:19:24.365Z,102045.88
2022-10-09T11:22:03.748Z,102045.78
2022-10-09T11:25:00.804Z,102037.09
2022-10-09T11:27:37.727Z,102034.81
2022-10-09T11:30:12.831Z,102033.78
2022-10-09T11:32:55.840Z,102028.41
2022-10-09T11:35:27.091Z,102025.47
2022-10-09T11:38:03.300Z,102031.09
2022-10-09T11:40:39.425Z,102028.50
2022-10-09T11:43:25.095Z,102024.44
2022-10-09T11:46:01.993Z,102027.69
2022-10-09T11:48:40.320Z,102018.19
2022-10-09T11:51:19.157Z,102018.88
2022-10-09T11:53:50.117Z,102011.38
2022-10-09T11:56:27.378Z,102004.84
2022-10-09T11:59:02.478Z,102003.59
2022-10-09T12:01:35.372Z,102001.88
2022-10-09T12:04:08.928Z,101995.34
2022-10-09T12:06:49.393Z,101987.41
2022-10-09T12:09:23.878Z,101998.47
2022-10-09T12:12:07.259Z,101991.34
2022-10-09T12:14:38.729Z,101984.78
2022-10-09T12:17:19.365Z,101987.00
2022-10-09T12:19:49.484Z,101992.94
2022-10-09T12:22:23.985Z,101990.41
2022-10-09T12:24:58.532Z,101981.50
2022-10-09T12:27:34.998Z,101977.53
2022-10-09T12:30:22.568Z,101975.34
2022-10-09T12:32:57.995Z,101982.31
2022-10-09T12:35:32.132Z,101974.97
2022-10-09T12:38:02.064Z,101974.25
2022-10-09T12:40:34.777Z,101954.94
2022-10-09T12:43:10.707Z,101963.69
2022-10-09T12:45:46.813Z,101961.41
2022-10-09T12:48:21.192Z,101958.69
2022-10-09T12:50:51.535Z,101947.19
2022-10-09T12:53:23.165Z,101955.28
2022-10-09T12:55:55.448Z,101949.44
2022-10-09T12:58:31.344Z,101945.44
2022-10-09T13:01:03.852Z,101943.63
2022-10-09T13:03:38.221Z,101942.78
2022-10-09T13:06:10.669Z,101934.75
2022-10-09T13:08:42.191Z,101936.72
2022-10-09T13:11:14.671Z,101941.38
2022-10-09T13:13:51.967Z,101933.81
2022-10-09T13:16:21.836Z,101934.34
2022-10-09T13:18:58.695Z,101932.22
2022-10-09T13:21:34.268Z,101922.47
2022-10-09T13:24:13.500Z,101916.88
2022-10-09T13:26:46.611Z,101924.34
2022-10-09T13:29:19.101Z,101923.50
2022-10-09T13:31:48.873Z,101916.06
2022-10-09T13:34:19.413Z,101914.41
2022-10-09T13:36:49.168Z,101920.97
2022-10-09T13:39:19.947Z,101917.69
2022-10-09T13:41:55.652Z,101918.19
2022-10-09T13:44:28.646Z,101919.13
2022-10-09T13:47:01.289Z,101914.13
2022-10-09T13:49:31.032Z,101911.03
2022-10-09T13:52:00.842Z,101913.63
2022-10-09T13:54:30.768Z,101907.84
2022-10-09T13:57:00.703Z,101912.66
2022-10-09T13:59:33.892Z,101911.97
2022-10-09T14:02:03.716Z,101901.75
2022-10-09T14:04:33.431Z,101897.69
2022-10-09T14:07:03.398Z,101893.22
2022-10-09T14:09:33.480Z,101901.63
2022-10-09T14:12:03.486Z,101900.34
2022-10-09T14:14:35.991Z,101897.84
2022-10-09T14:17:05.989Z,101887.72
2022-10-09T14:19:35.774Z,101893.28
2022-10-09T14:22:05.558Z,101888.22
2022-10-09T14:24:35.832Z,101887.63
2022-10-09T14:27:05.660Z,101887.56
2022-10-09T14:29:38.572Z,101877.25
2022-10-09T14:32:08.823Z,101882.53
2022-10-09T14:34:38.576Z,101872.47
2022-10-09T14:37:18.848Z,101882.59
2022-10-09T14:39:58.112Z,101877.59
2022-10-09T14:42:28.122Z,101866.63
2022-10-09T14:45:00.564Z,101866.81
2022-10-09T14:47:30.305Z,101865.81
2022-10-09T14:50:00.105Z,101859.41
2022-10-09T14:52:30.729Z,101859.22
2022-10-09T14:55:00.554Z,101854.03
2022-10-09T14:57:35.178Z,101853.19
2022-10-09T15:00:09.408Z,101852.56
2022-10-09T15:02:39.142Z,101856.91
2022-10-09T15:05:09.234Z,101855.63
2022-10-09T15:07:39.018Z,101851.44
2022-10-09T15:10:09.669Z,101855.88
2022-10-09T15:12:39.491Z,101850.06
2022-10-09T15:15:12.934Z,101851.44
2022-10-09T15:17:42.825Z,101847.56
2022-10-09T15:20:12.907Z,101846.25
2022-10-09T15:22:42.626Z,101849.78
2022-10-09T15:25:15.726Z,101847.00
2022-10-09T15:27:45.639Z,101838.31
2022-10-09T15:30:18.305Z,101849.44
2022-10-09T15:32:48.096Z,101843.41
2022-10-09T15:35:18.249Z,101835.25
2022-10-09T15:37:49.482Z,101839.81
2022-10-09T15:40:21.221Z,101830.41
2022-10-09T15:42:53.906Z,101830.41
2022-10-09T15:45:26.310Z,101827.28
2022-10-09T15:47:56.167Z,101833.00
2022-10-09T15:50:26.034Z,101833.53
2022-10-09T15:52:57.654Z,101828.19
2022-10-09T15:55:27.556Z,101821.78
2022-10-09T15:57:57.586Z,101829.56
2022-10-09T16:00:30.010Z,101829.56
2022-10-09T16:02:59.808Z,101835.97
2022-10-09T16:05:29.780Z,101836.16
2022-10-09T16:07:59.735Z,101833.63
2022-10-09T16:10:29.622Z,101832.81
2022-10-09T16:12:59.454Z,101831.97
2022-10-09T16:15:31.759Z,101829.19
2022-10-09T16:18:01.545Z,101828.72
2022-10-09T16:20:31.404Z,101822.06
2022-10-09T16:23:01.168Z,101827.63
2022-10-09T16:25:30.974Z,101828.13
2022-10-09T16:28:00.800Z,101826.19
2022-10-09T16:30:33.450Z,101821.19
2022-10-09T16:33:03.273Z,101825.53
2022-10-09T16:35:33.272Z,101827.59
2022-10-09T16:38:03.173Z,101828.13
2022-10-09T16:41:00.454Z,101824.16
2022-10-09T16:43:23.018Z,101829.50
2022-10-09T16:45:55.366Z,101810.44
2022-10-09T16:48:25.200Z,101824.22
2022-10-09T16:50:54.921Z,101818.38
2022-10-09T16:53:24.747Z,101827.78
2022-10-09T16:55:54.571Z,101824.81
2022-10-09T16:58:24.637Z,101816.47
2022-10-09T17:01:06.117Z,101820.88
2022-10-09T17:03:40.518Z,101815.88
2022-10-09T17:06:12.242Z,101817.91
2022-10-09T17:08:42.240Z,101815.41
2022-10-09T17:11:13.333Z,101816.41
2022-10-09T17:13:43.785Z,101815.75
2022-10-09T17:16:19.025Z,101804.56
2022-10-09T17:18:49.656Z,101806.75
2022-10-09T17:21:21.150Z,101799.59
2022-10-09T17:23:51.243Z,101804.28
2022-10-09T17:26:22.382Z,101807.69
2022-10-09T17:28:52.392Z,101806.03
2022-10-09T17:31:26.941Z,101807.22
2022-10-09T17:34:00.236Z,101801.19
2022-10-09T17:36:32.465Z,101802.38
2022-10-09T17:39:02.446Z,101813.47
2022-10-09T17:41:32.353Z,101813.84
2022-10-09T17:44:02.655Z,101802.81
2022-10-09T17:46:35.515Z,101812.38
2022-10-09T17:49:05.450Z,101809.50
2022-10-09T17:51:36.932Z,101810.69
2022-10-09T17:54:12.126Z,101798.47
2022-10-09T17:56:42.852Z,101792.47
2022-10-09T17:59:13.945Z,101792.63
2022-10-09T18:01:47.386Z,101788.28
2022-10-09T18:04:18.776Z,101790.31
2022-10-09T18:06:48.810Z,101789.19
2022-10-09T18:09:18.607Z,101792.22
2022-10-09T18:11:48.405Z,101786.19
2022-10-09T18:14:18.220Z,101788.88
2022-10-09T18:16:50.791Z,101782.84
2022-10-09T18:19:21.859Z,101785.53
2022-10-09T18:21:52.408Z,101800.59
2022-10-09T18:24:22.226Z,101789.22
2022-10-09T18:26:52.049Z,101783.03
2022-10-09T18:29:21.862Z,101785.06
2022-10-09T18:31:55.775Z,101782.56
2022-10-09T18:34:25.783Z,101783.56
2022-10-09T18:36:55.575Z,101781.06
2022-10-09T18:39:25.383Z,101771.66
2022-10-09T18:41:58.205Z,101780.69
2022-10-09T18:44:28.161Z,101776.50
2022-10-09T18:47:02.270Z,101773.34
2022-10-09T18:49:33.925Z,101776.38
2022-10-09T18:52:05.895Z,101767.88
2022-10-09T18:54:35.656Z,101770.53
2022-10-09T18:57:06.604Z,101765.53
2022-10-09T18:59:39.702Z,101767.56
2022-10-09T19:02:12.080Z,101761.72
2022-10-09T19:04:42.286Z,101765.41
2022-10-09T19:07:12.089Z,101759.56
2022-10-09T19:09:43.469Z,101761.56
2022-10-09T19:12:13.254Z,101760.75
2022-10-09T19:14:43.078Z,101752.41
2022-10-09T19:17:16.035Z,101752.75
2022-10-09T19:19:45.844Z,101754.91
2022-10-09T19:22:20.004Z,101755.25
2022-10-09T19:24:52.841Z,101747.56
2022-10-09T19:27:26.466Z,101752.59
2022-10-09T19:29:56.649Z,101747.78
2022-10-09T19:32:29.239Z,101749.97
2022-10-09T19:34:59.276Z,101747.97
2022-10-09T19:37:29.985Z,101740.94
2022-10-09T19:40:00.047Z,101743.97
2022-10-09T19:42:30.575Z,101751.16
2022-10-09T19:45:00.962Z,101734.94
2022-10-09T19:47:33.531Z,101739.97
2022-10-09T19:50:03.369Z,101740.97
2022-10-09T19:52:33.136Z,101733.13
2022-10-09T19:55:02.970Z,101740.66
2022-10-09T19:57:32.777Z,101729.59
2022-10-09T20:00:02.878Z,101731.94
2022-10-09T20:02:37.058Z,101727.28
2022-10-09T20:05:07.914Z,101728.63
2022-10-09T20:07:37.765Z,101721.78
2022-10-09T20:10:08.463Z,101718.75
2022-10-09T20:12:38.784Z,101719.25
2022-10-09T20:15:10.172Z,101720.25
2022-10-09T20:17:42.574Z,101716.91
2022-10-09T20:20:13.333Z,101715.25
2022-10-09T20:22:43.252Z,101708.41
2022-10-09T20:25:13.076Z,101715.09
2022-10-09T20:27:42.846Z,101711.75
2022-10-09T20:30:14.332Z,101697.22
2022-10-09T20:32:49.234Z,101698.56
2022-10-09T20:35:19.379Z,101709.41
2022-10-09T20:37:49.181Z,101704.53
2022-10-09T20:40:19.990Z,101699.53
2022-10-09T20:42:49.998Z,101705.53
2022-10-09T20:45:20.165Z,101702.38
2022-10-09T20:47:52.798Z,101698.38
2022-10-09T20:50:22.572Z,101700.38
2022-10-09T20:52:52.671Z,101699.53
2022-10-09T20:55:22.604Z,101695.84
2022-10-09T20:57:54.907Z,101698.88
2022-10-09T21:00:25.227Z,101694.19
2022-10-09T21:02:57.626Z,101696.53
2022-10-09T21:05:27.388Z,101698.03
2022-10-09T21:07:57.182Z,101697.53
2022-10-09T21:10:26.983Z,101698.53
2022-10-09T21:12:56.792Z,101697.88
2022-10-09T21:15:26.602Z,101690.84
2022-10-09T21:17:59.048Z,101694.69
2022-10-09T21:20:28.887Z,101686.00
2022-10-09T21:22:58.680Z,101688.00
2022-10-09T21:25:28.510Z,101676.66
2022-10-09T21:27:58.240Z,101679.31
2022-10-09T21:30:28.638Z,101671.47
2022-10-09T21:33:01.012Z,101675.31
2022-10-09T21:35:30.796Z,101666.09
2022-10-09T21:38:00.573Z,101669.78
2022-10-09T21:40:30.355Z,101671.91
2022-10-09T21:43:00.104Z,101664.06
2022-10-09T21:45:29.939Z,101673.06
2022-10-09T21:48:02.444Z,101675.06
2022-10-09T21:50:33.047Z,101673.41
2022-10-09T21:53:03.486Z,101673.06
2022-10-09T21:55:33.347Z,101669.88
2022-10-09T21:58:03.136Z,101665.53
2022-10-09T22:00:33.136Z,101664.72
2022-10-09T22:03:05.916Z,101666.03
2022-10-09T22:05:35.868Z,101660.69
2022-10-09T22:08:05.874Z,101659.53
2022-10-09T22:10:35.708Z,101660.69
2022-10-09T22:13:05.615Z,101654.66
2022-10-09T22:15:35.418Z,101653.81
2022-10-09T22:18:07.887Z,101646.97
2022-10-09T22:20:42.368Z,101649.28
2022-10-09T22:23:13.100Z,101650.28
2022-10-09T22:25:42.896Z,101648.13
2022-10-09T22:28:12.880Z,101649.28
2022-10-09T22:30:42.652Z,101645.09
2022-10-09T22:33:16.287Z,101636.25
2022-10-09T22:35:46.218Z,101640.44
2022-10-09T22:38:15.996Z,101636.09
2022-10-09T22:40:47.348Z,101634.25
2022-10-09T22:43:17.163Z,101632.44
2022-10-09T22:45:46.880Z,101633.59
2022-10-09T22:48:19.217Z,101631.09
2022-10-09T22:50:48.940Z,101631.91
2022-10-09T22:53:18.725Z,101628.56
2022-10-09T22:55:48.474Z,101626.06
2022-10-09T22:58:18.722Z,101623.56
2022-10-09T23:00:48.683Z,101614.06
2022-10-09T23:03:21.889Z,101619.56
2022-10-09T23:05:51.671Z,101617.72
2022-10-09T23:08:21.431Z,101611.72
2022-10-09T23:10:52.995Z,101605.19
2022-10-09T23:13:22.749Z,101606.66
2022-10-09T23:15:52.460Z,101602.78
2022-10-09T23:18:25.390Z,101603.78
2022-10-09T23:20:58.421Z,101595.78
2022-10-09T23:23:29.645Z,101601.28
2022-10-09T23:25:59.436Z,101604.44
2022-10-09T23:28:29.699Z,101596.75
2022-10-09T23:31:04.054Z,101602.41
2022-10-09T23:33:36.871Z,101601.91
2022-10-09T23:36:07.383Z,101591.56
2022-10-09T23:38:37.525Z,101597.06
2022-10-09T23:41:09.720Z,101589.38
2022-10-09T23:43:41.033Z,101580.84
2022-10-09T23:46:14.272Z,101579.28
2022-10-09T23:48:47.885Z,101580.63
2022-10-09T23:51:18.379Z,101577.28
2022-10-09T23:53:48.536Z,101580.94
2022-10-09T23:56:20.483Z,101580.25
2022-10-09T23:58:50.238Z,101583.91
